Time;durP1;ratioP1;P1;durP2;ratioP2;P2;SDS_P1;SDS_P2;PMS_P1;PMS_P2;Temp;Humidity;BMP_temperature;BMP_pressure;BME280_temperature;BME280_humidity;BME280_pressure;Samples;Min_cycle;Max_cycle;Signal;HPM_P1;HPM_P2
2021/12/21 00:01:43;;;;;;;4.15;3.10;;;;;;;0.87;61.15;99919.44;5085294;28;20044;-64
2021/12/21 00:04:15;;;;;;;5.45;3.60;;;;;;;0.91;61.32;99913.31;5085284;28;20228;-65
2021/12/21 00:06:48;;;;;;;6.03;3.40;;;;;;;0.88;61.17;99913.31;5085502;28;20040;-64
2021/12/21 00:09:21;;;;;;;5.20;3.00;;;;;;;0.85;61.24;99911.59;5085215;28;20339;-65
2021/12/21 00:11:53;;;;;;;4.63;3.38;;;;;;;0.85;61.23;99910.75;5085111;28;20041;-65
2021/12/21 00:14:35;;;;;;;4.40;2.78;;;;;;;0.81;61.18;99909.03;5085435;28;20048;-64
2021/12/21 00:17:17;;;;;;;6.65;3.45;;;;;;;0.78;61.17;99911.66;5085419;28;20041;-65
2021/12/21 00:20:06;;;;;;;5.03;3.13;;;;;;;0.79;61.13;99909.03;5085154;28;20063;-65
2021/12/21 00:23:16;;;;;;;4.82;3.97;;;;;;;0.73;61.29;99916.91;5085380;28;20045;-65
2021/12/21 00:25:45;;;;;;;5.18;3.45;;;;;;;0.73;61.25;99919.53;5085340;28;20049;-65
2021/12/21 00:28:17;;;;;;;5.07;3.33;;;;;;;0.65;61.27;99926.53;5085116;28;20103;-65
2021/12/21 00:30:49;;;;;;;5.75;3.35;;;;;;;0.67;61.34;99923.91;5085061;28;20048;-65
2021/12/21 00:33:22;;;;;;;4.78;2.97;;;;;;;0.64;61.18;99924.78;5085197;28;20059;-65
2021/12/21 00:35:54;;;;;;;6.38;3.17;;;;;;;0.66;61.24;99925.66;5084967;28;20048;-65
2021/12/21 00:38:28;;;;;;;8.23;3.35;;;;;;;0.70;61.19;99924.75;5087697;28;20048;-65
2021/12/21 00:41:01;;;;;;;6.18;3.08;;;;;;;0.68;61.20;99923.91;5088921;28;20075;-65
2021/12/21 00:43:33;;;;;;;4.38;3.30;;;;;;;0.06;61.15;99813.00;5088907;28;20044;-65
2021/12/21 00:46:06;;;;;;;5.25;3.08;;;;;;;0.63;61.31;99930.88;5088831;28;20041;-65
2021/12/21 00:48:47;;;;;;;5.35;3.50;;;;;;;-0.46;61.19;99794.16;5088765;28;20048;-65
2021/12/21 00:51:21;;;;;;;4.68;3.40;;;;;;;0.31;61.43;99889.34;5088765;28;20040;-65
2021/12/21 00:53:55;;;;;;;5.05;3.10;;;;;;;0.54;61.48;99934.41;5088665;28;20044;-65
2021/12/21 00:56:27;;;;;;;5.88;3.30;;;;;;;0.56;61.42;99937.00;5088665;28;20041;-65
2021/12/21 00:59:00;;;;;;;4.68;3.15;;;;;;;0.54;61.61;99931.81;5088591;28;20056;-65
2021/12/21 01:01:34;;;;;;;6.63;3.38;;;;;;;0.51;61.51;99934.44;5088355;28;20040;-65
2021/12/21 01:04:12;;;;;;;6.75;4.60;;;;;;;0.50;61.48;99969.22;5088558;28;20052;-65
2021/12/21 01:06:58;;;;;;;4.95;3.05;;;;;;;0.41;61.79;99937.09;5088220;28;20311;-65
2021/12/21 01:10:00;;;;;;;4.25;3.00;;;;;;;0.41;61.90;99940.56;5087931;28;20060;-65
2021/12/21 01:12:45;;;;;;;5.82;3.97;;;;;;;0.39;61.90;99941.44;5088274;28;20041;-64
2021/12/21 01:15:30;;;;;;;4.10;2.97;;;;;;;0.39;61.63;99934.50;5088372;28;20052;-65
2021/12/21 01:18:02;;;;;;;5.22;3.63;;;;;;;0.36;62.09;99947.53;5087719;28;20067;-65
2021/12/21 01:20:38;;;;;;;5.93;3.92;;;;;;;0.35;61.89;99938.00;5088097;28;20040;-65
2021/12/21 01:23:41;;;;;;;4.57;3.38;;;;;;;0.35;61.99;99940.59;5087941;28;20051;-65
2021/12/21 01:26:21;;;;;;;7.63;4.40;;;;;;;-0.26;62.03;99874.81;5087877;28;20186;-65
2021/12/21 01:29:01;;;;;;;4.53;2.95;;;;;;;0.22;62.35;99937.19;5088071;28;20044;-65
2021/12/21 01:31:43;;;;;;;6.15;3.63;;;;;;;0.28;62.08;99944.09;5088037;28;20048;-65
2021/12/21 01:34:27;;;;;;;4.20;3.25;;;;;;;0.27;62.00;99935.41;5087867;28;20059;-65
2021/12/21 01:37:05;;;;;;;5.70;3.93;;;;;;;0.26;62.23;99930.22;5087990;28;20054;-66
2021/12/21 01:51:01;;;;;;;6.03;3.20;;;;;;;0.18;62.05;99931.97;5087572;28;20051;-65
2021/12/21 01:53:34;;;;;;;5.18;3.58;;;;;;;0.16;61.95;99929.38;5087500;28;20044;-65
2021/12/21 01:56:07;;;;;;;5.85;3.38;;;;;;;0.16;61.88;99936.34;5087561;28;20040;-65
2021/12/21 01:58:42;;;;;;;4.18;3.40;;;;;;;0.13;61.69;99932.00;5086458;28;20044;-65
2021/12/21 02:01:16;;;;;;;;;;;;;;;0.09;62.15;99934.63;5087620;28;20200;-65
2021/12/21 02:03:49;;;;;;;5.93;3.22;;;;;;;0.07;62.09;99928.56;5087442;28;19916;-65
2021/12/21 02:06:25;;;;;;;4.90;3.28;;;;;;;0.10;61.85;99926.81;5087077;28;20293;-65
2021/12/21 02:08:57;;;;;;;4.40;3.38;;;;;;;0.04;62.02;99924.22;5087043;28;20309;-65
2021/12/21 02:11:29;;;;;;;5.20;3.88;;;;;;;0.03;61.87;99925.09;5086957;28;20041;-65
2021/12/21 02:14:06;;;;;;;4.15;2.97;;;;;;;-0.01;62.20;99923.38;5086837;28;20052;-65
2021/12/21 02:16:48;;;;;;;7.55;3.83;;;;;;;-0.00;62.05;99924.22;5086834;28;20036;-66
2021/12/21 02:19:25;;;;;;;4.65;3.33;;;;;;;0.06;61.97;99925.06;5087073;28;20040;-65
2021/12/21 02:22:08;;;;;;;4.75;3.80;;;;;;;0.03;62.09;99929.44;5087012;28;20059;-64
2021/12/21 02:24:48;;;;;;;5.45;3.08;;;;;;;0.06;61.73;99921.59;5086714;28;20048;-64
2021/12/21 02:27:28;;;;;;;3.92;3.35;;;;;;;0.02;62.02;99919.88;5086646;28;20048;-65
2021/12/21 02:30:01;;;;;;;5.68;3.47;;;;;;;-0.02;61.98;99920.75;5086558;28;20060;-65
2021/12/21 02:32:33;;;;;;;5.60;3.95;;;;;;;0.00;61.86;99919.88;5086797;28;20040;-65
2021/12/21 02:35:06;;;;;;;6.22;3.60;;;;;;;0.05;61.56;99930.28;5086676;28;20048;-64
2021/12/21 02:37:40;;;;;;;6.00;3.17;;;;;;;0.04;61.56;99928.56;5086702;28;20059;-64
2021/12/21 02:40:13;;;;;;;5.47;3.10;;;;;;;0.04;61.59;99931.16;5086669;28;20047;-64
2021/12/21 02:42:45;;;;;;;4.90;2.95;;;;;;;0.03;61.34;99929.44;5086318;28;20048;-65
2021/12/21 02:45:17;;;;;;;3.42;2.63;;;;;;;-0.02;61.37;99939.00;5086534;28;20213;-65
2021/12/21 02:47:50;;;;;;;5.15;3.35;;;;;;;-0.04;61.05;99931.19;5086507;28;20048;-65
2021/12/21 02:50:22;;;;;;;7.63;3.15;;;;;;;-1.42;61.32;99698.97;5086462;28;20308;-64
2021/12/21 02:52:56;;;;;;;5.50;3.35;;;;;;;-0.04;61.35;99929.47;5086144;28;20048;-65
2021/12/21 02:55:25;;;;;;;3.45;2.88;;;;;;;-0.01;61.29;99931.19;5086340;28;20040;-65
2021/12/21 02:57:57;;;;;;;4.32;2.95;;;;;;;-0.06;61.22;99932.94;5085574;28;20047;-65
2021/12/21 03:00:25;;;;;;;3.65;2.75;;;;;;;-0.09;61.09;99928.59;5086102;28;20114;-65
2021/12/21 03:02:56;;;;;;;3.42;2.47;;;;;;;-0.13;61.04;99931.22;5086269;28;20285;-65
2021/12/21 03:05:28;;;;;;;4.35;3.38;;;;;;;-0.12;61.05;99927.75;5086193;28;20044;-64
2021/12/21 03:08:08;;;;;;;3.65;3.13;;;;;;;-0.09;60.86;99932.94;5086177;28;20040;-65
2021/12/21 03:10:57;;;;;;;3.88;2.47;;;;;;;-0.13;60.84;99939.03;5085766;28;20071;-64
2021/12/21 03:16:21;;;;;;;3.80;2.90;;;;;;;-0.16;60.69;99941.66;5086067;28;20040;-65
2021/12/21 03:18:56;;;;;;;4.57;3.50;;;;;;;-0.17;60.46;99939.91;5086019;28;20048;-65
2021/12/21 03:21:29;;;;;;;3.55;2.67;;;;;;;-0.44;60.46;99897.44;5085768;28;20048;-64
2021/12/21 03:24:04;;;;;;;5.57;2.72;;;;;;;-0.17;60.33;99943.38;5085741;28;20205;-64
2021/12/21 03:26:37;;;;;;;6.50;2.88;;;;;;;-0.16;60.43;99952.06;5086030;28;20201;-65
2021/12/21 03:29:09;;;;;;;4.50;3.15;;;;;;;-0.16;60.38;99949.47;5085910;28;20048;-65
2021/12/21 03:31:41;;;;;;;3.10;2.42;;;;;;;-0.19;60.56;99952.94;5085608;28;20037;-65
2021/12/21 03:34:14;;;;;;;5.03;2.95;;;;;;;-1.88;60.55;99653.97;5085772;28;20289;-65
2021/12/21 03:36:46;;;;;;;4.38;2.80;;;;;;;-0.20;60.40;99948.59;5085835;28;20052;-64
2021/12/21 03:39:22;;;;;;;6.85;2.95;;;;;;;-2.39;60.37;99572.59;5085849;28;20041;-65
2021/12/21 03:41:57;;;;;;;5.45;2.78;;;;;;;-0.15;60.42;99940.78;5085779;28;20040;-65
2021/12/21 03:44:30;;;;;;;3.58;2.70;;;;;;;-0.14;60.31;99943.38;5085470;28;20208;-65
2021/12/21 03:47:04;;;;;;;4.35;2.70;;;;;;;-0.13;60.31;99946.84;5085682;28;20048;-65
2021/12/21 03:52:28;;;;;;;3.42;2.75;;;;;;;-0.19;60.33;99954.69;5085675;28;20047;-65
2021/12/21 03:55:02;;;;;;;3.70;2.92;;;;;;;-0.52;60.09;99904.41;5085599;28;20045;-65
2021/12/21 03:57:35;;;;;;;4.55;2.78;;;;;;;-0.22;60.15;99950.34;5084921;28;20041;-65
2021/12/21 04:00:12;;;;;;;5.25;2.47;;;;;;;-0.21;60.16;99954.69;5085320;28;20047;-65
2021/12/21 04:02:44;;;;;;;3.47;2.60;;;;;;;-0.21;59.86;99952.09;5085635;28;20292;-65
2021/12/21 04:05:17;;;;;;;3.63;2.88;;;;;;;-0.24;60.09;99948.63;5085332;28;20052;-65
2021/12/21 04:07:49;;;;;;;4.63;2.50;;;;;;;-0.23;60.14;99951.22;5085285;28;20309;-65
2021/12/21 04:10:23;;;;;;;4.90;2.85;;;;;;;-0.22;60.06;99947.75;5085066;28;20052;-65
2021/12/21 04:12:55;;;;;;;4.38;3.42;;;;;;;-0.27;60.07;99952.09;5087348;28;20048;-65
2021/12/21 04:15:31;;;;;;;3.47;2.72;;;;;;;-0.23;59.94;99955.56;5089417;28;20045;-65
2021/12/21 04:18:05;;;;;;;4.15;2.95;;;;;;;-0.24;59.70;99962.50;5089179;28;20040;-65
2021/12/21 04:20:33;;;;;;;5.00;2.70;;;;;;;-0.29;59.87;99956.44;5089384;28;20040;-65
2021/12/21 04:23:04;;;;;;;6.07;3.28;;;;;;;-0.30;59.85;99959.91;5089368;28;20304;-65
2021/12/21 04:25:35;;;;;;;4.68;3.22;;;;;;;-0.28;59.81;99949.50;5089238;28;20044;-65
2021/12/21 04:28:04;;;;;;;3.67;2.67;;;;;;;-0.30;60.01;99948.63;5089177;28;20063;-65
2021/12/21 04:30:34;;;;;;;5.85;3.40;;;;;;;-0.30;59.96;99953.84;5089353;28;20103;-65
2021/12/21 04:33:04;;;;;;;5.47;3.85;;;;;;;-0.33;60.02;99954.72;5089112;28;20045;-65
2021/12/21 04:35:35;;;;;;;5.10;3.40;;;;;;;-0.34;60.01;99952.13;5088641;28;20204;-65
2021/12/21 04:38:20;;;;;;;3.90;3.15;;;;;;;-0.32;59.92;99947.75;5088739;28;20040;-65
2021/12/21 04:41:00;;;;;;;3.78;2.90;;;;;;;-0.35;59.52;99948.63;5088675;28;20040;-64
2021/12/21 04:43:32;;;;;;;4.82;3.00;;;;;;;-0.38;59.84;99946.91;5088608;28;20041;-65
2021/12/21 04:46:05;;;;;;;3.50;2.72;;;;;;;-0.36;59.84;99946.91;5088826;28;20059;-64
2021/12/21 04:48:38;;;;;;;4.00;3.20;;;;;;;-0.38;59.95;99952.13;5088815;28;20048;-65
2021/12/21 04:51:10;;;;;;;4.25;3.53;;;;;;;-0.39;60.27;99944.31;5088784;28;20040;-65
2021/12/21 04:53:43;;;;;;;4.13;2.83;;;;;;;-0.41;59.98;99954.72;5088657;28;20205;-64
2021/12/21 04:56:17;;;;;;;4.70;3.40;;;;;;;-0.41;60.17;99954.72;5088308;28;20052;-64
2021/12/21 04:58:49;;;;;;;8.10;3.67;;;;;;;-0.77;60.07;99893.16;5088644;28;20292;-65
2021/12/21 05:01:21;;;;;;;6.20;3.40;;;;;;;-0.42;60.13;99952.13;5088326;28;20200;-65
2021/12/21 05:03:54;;;;;;;5.40;3.05;;;;;;;-0.39;60.26;99949.50;5088514;28;20067;-65
2021/12/21 05:06:26;;;;;;;5.10;3.13;;;;;;;-0.38;60.12;99961.66;5088501;28;20040;-65
2021/12/21 05:09:09;;;;;;;4.68;3.17;;;;;;;-0.41;60.03;99961.66;5087984;28;20067;-65
2021/12/21 05:11:44;;;;;;;4.43;3.08;;;;;;;-0.44;59.75;99965.16;5088113;28;20040;-65
2021/12/21 05:14:16;;;;;;;5.93;3.17;;;;;;;-0.45;59.74;99979.03;5088050;28;20041;-65
2021/12/21 05:16:49;;;;;;;4.50;2.97;;;;;;;-1.58;59.97;99767.44;5087855;28;20293;-65
2021/12/21 05:19:21;;;;;;;6.05;3.67;;;;;;;-0.44;59.63;99965.16;5088036;28;20040;-65
2021/12/21 05:21:53;;;;;;;4.15;3.13;;;;;;;-0.45;59.72;99968.63;5088211;28;20312;-65
2021/12/21 05:24:26;;;;;;;3.67;3.17;;;;;;;-0.48;59.53;99970.34;5086778;28;20059;-65
2021/12/21 05:26:59;;;;;;;6.53;3.20;;;;;;;-0.49;59.97;99963.41;5088102;28;20040;-65
2021/12/21 05:29:32;;;;;;;4.18;2.88;;;;;;;-0.52;59.69;99968.63;5088065;28;20048;-64
2021/12/21 05:32:06;;;;;;;3.92;2.72;;;;;;;-0.53;59.98;99970.38;5087986;28;20060;-64
2021/12/21 05:34:38;;;;;;;4.72;3.33;;;;;;;-0.54;59.86;99971.22;5087649;28;20239;-64
2021/12/21 05:37:10;;;;;;;4.13;2.70;;;;;;;-0.57;59.68;99971.22;5087678;28;20208;-64
2021/12/21 05:39:54;;;;;;;5.78;3.78;;;;;;;-1.78;59.70;99790.81;5087815;28;20047;-64
2021/12/21 05:42:28;;;;;;;4.78;3.30;;;;;;;-0.58;59.90;99977.31;5087526;28;20048;-64
2021/12/21 05:45:00;;;;;;;3.92;3.38;;;;;;;-0.52;60.03;99974.69;5087785;28;20289;-64
2021/12/21 05:47:32;;;;;;;6.97;4.00;;;;;;;-0.54;59.83;99978.19;5087464;28;20047;-64
2021/12/21 05:50:08;;;;;;;4.95;3.83;;;;;;;-0.59;59.85;99978.19;5087370;28;20301;-64
2021/12/21 05:52:40;;;;;;;8.93;3.95;;;;;;;-0.58;59.89;99981.66;5087669;28;20049;-64
2021/12/21 05:55:17;;;;;;;4.82;3.83;;;;;;;-0.60;59.63;99980.78;5087477;28;20047;-64
2021/12/21 05:57:51;;;;;;;3.83;2.78;;;;;;;-0.61;59.99;99985.13;5087497;28;20041;-64
2021/12/21 06:00:26;;;;;;;6.05;3.70;;;;;;;-0.63;59.82;99983.38;5087137;28;20040;-64
2021/12/21 06:02:58;;;;;;;4.85;3.25;;;;;;;-0.65;60.00;99988.59;5087051;28;20047;-64
2021/12/21 06:05:31;;;;;;;5.22;3.60;;;;;;;-0.68;60.09;99978.19;5086292;28;20055;-65
2021/12/21 06:08:03;;;;;;;6.30;3.70;;;;;;;-0.68;60.23;99988.59;5087011;28;20041;-64
2021/12/21 06:10:37;;;;;;;5.65;3.92;;;;;;;-0.73;60.07;99990.31;5086774;28;20060;-64
2021/12/21 06:16:25;;;;;;;4.10;3.30;;;;;;;-0.79;60.54;99982.50;5084471;28;20317;-64
2021/12/21 06:27:29;;;;;;;7.43;4.10;;;;;;;-0.82;60.67;99987.72;5086545;28;20041;-65
2021/12/21 06:30:05;;;;;;;5.60;3.70;;;;;;;-0.82;60.50;99988.59;5086375;28;20040;-65
2021/12/21 06:32:38;;;;;;;5.47;3.53;;;;;;;-1.10;60.23;99955.56;5086313;28;20040;-65
2021/12/21 06:35:12;;;;;;;6.45;3.78;;;;;;;-0.82;60.35;99990.31;5085815;28;20045;-65
2021/12/21 06:37:45;;;;;;;6.18;4.07;;;;;;;-0.82;60.28;99985.13;5085835;28;20291;-65
2021/12/21 06:40:18;;;;;;;6.20;4.07;;;;;;;-0.82;60.41;99992.91;5085812;28;20044;-65
2021/12/21 06:42:51;;;;;;;5.03;3.70;;;;;;;-0.81;60.38;99992.94;5086582;28;20185;-65
2021/12/21 06:45:33;;;;;;;4.93;3.80;;;;;;;-0.82;60.33;100000.72;5086116;28;20048;-66
2021/12/21 06:51:15;;;;;;;6.45;3.80;;;;;;;-5.73;59.98;99195.09;5086417;28;20041;-65
2021/12/21 06:53:51;;;;;;;15.10;9.40;;;;;;;-0.80;60.72;100001.59;5085139;28;20040;-64
2021/12/21 06:56:24;;;;;;;9.20;5.07;;;;;;;-0.77;60.60;100004.19;5085899;28;20208;-66
2021/12/21 06:58:57;;;;;;;6.97;4.72;;;;;;;-0.80;60.52;100002.47;5086157;28;20040;-64
2021/12/21 07:01:33;;;;;;;7.22;3.53;;;;;;;-0.82;60.35;100004.19;5085841;28;20041;-65
2021/12/21 07:04:06;;;;;;;7.47;4.15;;;;;;;-0.78;60.65;100018.94;5085874;28;20281;-64
2021/12/21 07:06:40;;;;;;;4.88;3.53;;;;;;;-1.11;60.40;99959.03;5086196;28;20052;-64
2021/12/21 07:09:19;;;;;;;5.43;3.88;;;;;;;-2.46;60.34;99762.94;5085905;28;20052;-64
2021/12/21 07:12:07;;;;;;;5.97;4.43;;;;;;;-0.81;60.53;100015.47;5085925;28;20052;-65
2021/12/21 07:20:29;;;;;;;5.18;3.95;;;;;;;-0.78;60.46;100023.28;5103947;27;20615;-65
2021/12/21 07:23:02;;;;;;;5.70;4.33;;;;;;;-0.79;60.53;100021.56;5102875;28;20047;-65
2021/12/21 07:25:34;;;;;;;7.10;5.03;;;;;;;-0.78;60.72;100028.50;5102933;28;20288;-65
2021/12/21 07:28:05;;;;;;;7.18;3.78;;;;;;;-0.75;60.72;100025.91;5103173;28;20048;-65
2021/12/21 07:30:35;;;;;;;5.60;4.35;;;;;;;-0.71;60.79;100025.91;5102309;28;20048;-65
2021/12/21 07:33:05;;;;;;;4.80;3.67;;;;;;;-0.68;60.56;100030.25;5102221;28;20041;-65
2021/12/21 07:35:37;;;;;;;8.02;3.85;;;;;;;-0.72;61.02;100033.72;5103515;28;20048;-65
2021/12/21 07:38:05;;;;;;;8.30;4.15;;;;;;;-0.70;60.59;100027.63;5102789;28;20093;-65
2021/12/21 07:40:36;;;;;;;6.18;4.10;;;;;;;-0.67;60.59;100018.97;5102932;28;20081;-65
2021/12/21 07:43:07;;;;;;;5.72;4.05;;;;;;;-0.70;60.69;100022.44;5102490;28;20208;-65
2021/12/21 07:45:36;;;;;;;7.55;4.25;;;;;;;-0.62;60.47;100025.03;5102692;28;20040;-65
2021/12/21 07:48:07;;;;;;;4.82;3.65;;;;;;;-0.60;60.30;100027.66;5102714;28;20036;-65
2021/12/21 07:50:39;;;;;;;5.60;4.20;;;;;;;-0.54;60.52;100012.88;5102490;28;20070;-65
2021/12/21 07:53:07;;;;;;;5.82;4.35;;;;;;;-0.47;60.28;100009.41;5102658;28;20316;-65
2021/12/21 07:55:37;;;;;;;7.95;4.22;;;;;;;-0.52;60.08;99985.13;5102314;28;20040;-65
2021/12/21 07:58:08;;;;;;;7.20;4.63;;;;;;;-0.25;59.73;100012.00;5102246;28;20040;-65
2021/12/21 08:00:39;;;;;;;6.15;4.80;;;;;;;-0.63;59.51;99923.50;5102218;28;20086;-65
2021/12/21 08:03:09;;;;;;;7.78;4.68;;;;;;;-0.00;59.40;100010.22;5102196;28;20048;-65
2021/12/21 08:05:40;;;;;;;6.22;4.70;;;;;;;0.20;58.89;100016.25;5102311;28;20059;-65
2021/12/21 08:08:13;;;;;;;9.18;5.05;;;;;;;0.39;58.25;100019.69;5102256;28;20043;-65
2021/12/21 08:10:49;;;;;;;5.25;3.50;;;;;;;-1.78;58.00;99618.44;5102134;28;20048;-65
2021/12/21 08:13:22;;;;;;;5.78;3.85;;;;;;;0.73;57.60;100013.44;5101942;28;20288;-65
2021/12/21 08:15:55;;;;;;;5.25;3.78;;;;;;;0.92;56.92;100006.38;5101908;28;20060;-66
2021/12/21 08:18:27;;;;;;;6.45;4.18;;;;;;;1.09;57.02;100014.97;5101328;28;20048;-64
2021/12/21 08:21:02;;;;;;;4.63;3.70;;;;;;;1.26;56.13;99996.59;5101611;28;20036;-64
2021/12/21 08:23:34;;;;;;;4.32;3.92;;;;;;;1.35;55.55;99998.25;5101103;28;20051;-65
2021/12/21 08:26:06;;;;;;;6.13;3.80;;;;;;;-0.12;55.27;99729.72;5101514;28;20040;-65
2021/12/21 08:28:39;;;;;;;6.43;4.80;;;;;;;-0.82;54.84;99590.41;5101727;28;20059;-65
2021/12/21 08:31:12;;;;;;;6.50;3.92;;;;;;;1.68;55.34;100000.63;5091682;28;20044;-64
2021/12/21 08:33:45;;;;;;;6.00;3.78;;;;;;;1.78;55.23;99999.66;5088099;28;20048;-64
2021/12/21 08:36:19;;;;;;;6.75;4.82;;;;;;;1.85;54.57;100003.09;5087801;28;20036;-65
2021/12/21 08:38:51;;;;;;;6.07;4.57;;;;;;;1.47;55.32;99925.03;5087582;28;20040;-66
2021/12/21 08:41:24;;;;;;;5.55;4.05;;;;;;;2.02;54.77;100008.16;5087751;28;20040;-65
2021/12/21 08:43:56;;;;;;;5.13;3.83;;;;;;;2.08;54.88;100006.34;5087676;28;20044;-65
2021/12/21 08:46:29;;;;;;;6.88;4.38;;;;;;;2.22;54.78;99998.34;5087775;28;20048;-65
2021/12/21 08:49:01;;;;;;;7.47;4.25;;;;;;;2.33;54.67;100006.06;5087688;28;20047;-65
2021/12/21 08:51:35;;;;;;;6.22;3.85;;;;;;;2.42;54.37;100012.06;5087771;28;20041;-66
2021/12/21 08:54:07;;;;;;;4.57;3.97;;;;;;;2.45;53.66;100011.16;5087459;28;20048;-65
2021/12/21 08:56:39;;;;;;;5.85;4.55;;;;;;;2.48;54.05;100009.38;5088003;28;20048;-67
2021/12/21 08:59:12;;;;;;;5.15;3.92;;;;;;;2.52;53.56;100012.81;5087557;28;20044;-66
2021/12/21 09:01:46;;;;;;;4.50;3.80;;;;;;;2.62;53.70;100011.81;5087614;28;20334;-66
2021/12/21 09:04:19;;;;;;;4.35;3.65;;;;;;;2.63;53.43;100013.53;5087619;28;20048;-66
2021/12/21 09:06:53;;;;;;;6.10;3.85;;;;;;;2.77;52.98;100014.22;5087435;28;20239;-66
2021/12/21 09:09:26;;;;;;;4.22;3.40;;;;;;;2.83;52.28;100000.19;5087430;28;20044;-66
2021/12/21 09:11:58;;;;;;;8.13;4.70;;;;;;;3.03;53.29;100007.78;5087407;28;20046;-66
2021/12/21 09:14:32;;;;;;;6.40;4.80;;;;;;;3.15;52.07;100010.22;5087589;28;20071;-66
2021/12/21 09:17:05;;;;;;;5.65;3.33;;;;;;;3.33;52.66;100011.69;5087213;28;20040;-66
2021/12/21 09:19:37;;;;;;;5.05;3.90;;;;;;;3.47;51.78;100017.59;5086812;28;20056;-65
2021/12/21 09:22:11;;;;;;;4.88;3.67;;;;;;;3.55;50.27;100005.22;5087025;28;20036;-66
2021/12/21 09:24:43;;;;;;;4.35;2.95;;;;;;;3.65;51.78;100005.94;5087070;28;20051;-66
2021/12/21 09:27:16;;;;;;;5.03;3.38;;;;;;;3.13;51.46;99886.28;5087302;28;20041;-66
2021/12/21 09:29:48;;;;;;;6.05;3.33;;;;;;;4.05;50.31;99996.47;5086848;28;20056;-66
2021/12/21 09:32:21;;;;;;;7.18;3.70;;;;;;;4.14;51.11;99991.06;5086404;28;20210;-66
2021/12/21 09:34:53;;;;;;;4.80;3.63;;;;;;;4.28;48.94;99989.97;5086919;28;20055;-66
2021/12/21 09:37:27;;;;;;;5.60;4.13;;;;;;;4.56;49.27;99988.50;5086567;28;20197;-65
2021/12/21 09:40:00;;;;;;;5.72;4.05;;;;;;;4.84;49.16;99982.66;5086906;28;20045;-66
2021/12/21 09:42:33;;;;;;;4.80;3.75;;;;;;;5.19;49.04;99969.63;5085810;28;20048;-67
2021/12/21 09:45:08;;;;;;;5.07;3.20;;;;;;;5.41;48.37;99976.09;5086943;28;20047;-67
2021/12/21 09:47:41;;;;;;;3.70;2.72;;;;;;;5.59;48.29;99969.53;5086815;28;20048;-66
2021/12/21 09:50:16;;;;;;;4.68;3.47;;;;;;;5.77;46.41;99960.31;5086864;28;20055;-66
2021/12/21 09:52:49;;;;;;;;;;;;;;;5.94;43.93;99954.59;5087138;28;20308;-66
2021/12/21 09:55:22;;;;;;;4.55;3.28;;;;;;;5.93;46.70;99921.31;5086738;28;19924;-66
2021/12/21 09:57:55;;;;;;;4.15;3.20;;;;;;;6.33;46.96;99952.63;5086676;28;20204;-66
2021/12/21 10:00:31;;;;;;;8.20;3.80;;;;;;;6.48;44.95;99951.34;5086184;28;20041;-66
2021/12/21 10:03:05;;;;;;;6.43;4.43;;;;;;;6.51;46.05;99951.25;5086377;28;20047;-66
2021/12/21 10:05:41;;;;;;;7.40;4.63;;;;;;;6.58;44.36;99953.66;5086306;28;20048;-66
2021/12/21 10:08:17;;;;;;;5.93;3.90;;;;;;;6.66;44.32;99948.16;5086001;28;20040;-66
2021/12/21 10:10:52;;;;;;;4.82;3.30;;;;;;;6.78;43.50;99954.84;5086197;28;20052;-66
2021/12/21 10:13:26;;;;;;;5.93;3.97;;;;;;;6.93;44.50;99964.94;5086183;28;20089;-66
2021/12/21 10:15:56;;;;;;;5.38;3.60;;;;;;;7.01;45.12;99949.75;5085795;28;20056;-66
2021/12/21 10:18:25;;;;;;;4.70;3.58;;;;;;;7.21;44.74;99949.13;5085934;28;20201;-67
2021/12/21 10:20:56;;;;;;;4.55;3.20;;;;;;;7.11;44.57;99947.69;5085939;28;20048;-69
2021/12/21 10:23:28;;;;;;;6.80;2.75;;;;;;;7.22;41.89;99942.94;5086313;28;20043;-67
2021/12/21 10:26:04;;;;;;;4.07;3.47;;;;;;;7.17;42.68;99942.22;5086150;28;20289;-67
2021/12/21 10:28:39;;;;;;;7.07;3.28;;;;;;;7.19;42.84;99935.13;5085705;28;20040;-66
2021/12/21 10:31:13;;;;;;;4.30;2.65;;;;;;;7.26;42.80;99940.16;5085736;28;20052;-67
2021/12/21 10:33:46;;;;;;;3.90;3.00;;;;;;;7.36;43.50;99938.97;5085714;28;20204;-65
2021/12/21 10:36:19;;;;;;;3.42;2.50;;;;;;;7.54;42.71;99934.88;5085490;28;20040;-66
2021/12/21 10:38:56;;;;;;;5.88;3.17;;;;;;;7.60;41.75;99931.16;5085363;28;20040;-66
2021/12/21 10:41:32;;;;;;;3.72;2.35;;;;;;;7.61;42.87;99930.25;5085368;28;20040;-66
2021/12/21 10:44:06;;;;;;;4.80;2.70;;;;;;;7.73;41.91;99932.47;5085598;28;20048;-65
2021/12/21 10:46:42;;;;;;;6.05;4.45;;;;;;;7.52;40.97;99883.09;5085525;28;20041;-66
2021/12/21 10:49:16;;;;;;;4.03;2.90;;;;;;;7.79;41.23;99921.69;5085429;28;20041;-66
2021/12/21 10:51:53;;;;;;;3.75;2.90;;;;;;;7.54;39.31;99879.47;5085524;28;20044;-66
2021/12/21 10:54:31;;;;;;;6.97;3.53;;;;;;;7.48;38.28;99884.97;5085248;28;20053;-66
2021/12/21 10:57:10;;;;;;;3.65;2.22;;;;;;;7.87;40.70;99911.75;5085774;28;20041;-67
2021/12/21 10:59:45;;;;;;;3.53;2.28;;;;;;;7.78;39.24;99912.06;5085541;28;20297;-67
2021/12/21 11:02:21;;;;;;;3.83;2.50;;;;;;;7.80;39.73;99912.00;5085474;28;20040;-66
2021/12/21 11:04:57;;;;;;;3.90;2.17;;;;;;;7.70;41.27;99909.69;5085216;28;20037;-65
2021/12/21 11:07:33;;;;;;;2.90;2.08;;;;;;;7.90;39.91;99906.34;5085616;28;20048;-66
2021/12/21 11:10:12;;;;;;;3.30;2.70;;;;;;;7.99;38.88;99905.16;5085451;28;20075;-66
2021/12/21 11:12:46;;;;;;;4.78;3.08;;;;;;;7.62;39.23;99871.28;5084980;28;20201;-66
2021/12/21 11:15:21;;;;;;;3.58;2.70;;;;;;;7.78;38.59;99875.13;5084211;28;20048;-66
2021/12/21 11:17:54;;;;;;;4.15;2.60;;;;;;;7.88;39.82;99904.69;5085055;28;20048;-65
2021/12/21 11:20:27;;;;;;;4.18;2.50;;;;;;;7.89;38.54;99894.06;5084973;28;20043;-67
2021/12/21 11:23:01;;;;;;;3.00;2.38;;;;;;;7.81;39.35;99892.63;5085370;28;20040;-65
2021/12/21 11:25:35;;;;;;;3.42;2.70;;;;;;;7.78;38.74;99892.72;5084966;28;20048;-66
2021/12/21 11:28:08;;;;;;;3.25;2.42;;;;;;;7.89;40.21;99893.22;5085027;28;20047;-66
2021/12/21 11:30:42;;;;;;;4.35;2.53;;;;;;;7.52;40.14;99814.50;5084782;28;20067;-66
2021/12/21 11:33:17;;;;;;;3.83;2.30;;;;;;;7.99;39.89;99882.25;5084734;28;20313;-65
2021/12/21 11:38:40;;;;;;;4.45;2.65;;;;;;;8.00;39.85;99865.50;5084935;28;20040;-67
2021/12/21 11:41:14;;;;;;;5.03;2.38;;;;;;;8.01;40.97;99877.78;5084658;28;20040;-66
2021/12/21 11:43:54;;;;;;;3.38;2.35;;;;;;;7.95;38.96;99863.94;5084881;28;20047;-67
2021/12/21 11:46:34;;;;;;;4.18;2.20;;;;;;;7.87;39.32;99858.09;5084684;28;20040;-68
2021/12/21 11:49:14;;;;;;;6.05;2.55;;;;;;;8.15;37.70;99853.53;5084911;28;20054;-67
2021/12/21 11:51:46;;;;;;;3.50;1.90;;;;;;;7.96;40.11;99863.91;5085067;28;20044;-66
2021/12/21 11:54:22;;;;;;;3.42;2.60;;;;;;;8.05;38.58;99851.28;5084644;28;20059;-66
2021/12/21 11:57:03;;;;;;;3.40;1.90;;;;;;;8.07;35.96;99852.09;5084787;28;20052;-65
2021/12/21 11:59:35;;;;;;;4.03;1.90;;;;;;;8.05;39.50;99846.00;5084734;28;20048;-65
2021/12/21 12:02:08;;;;;;;7.00;3.67;;;;;;;7.81;38.01;99850.41;5084688;28;20044;-65
2021/12/21 12:04:41;;;;;;;4.30;2.10;;;;;;;7.48;38.32;99794.44;5084676;28;20048;-66
2021/12/21 12:07:17;;;;;;;4.80;3.53;;;;;;;7.83;38.45;99841.50;5087913;28;20040;-66
2021/12/21 12:10:06;;;;;;;3.65;2.55;;;;;;;7.75;36.17;99840.06;5088430;28;20059;-66
2021/12/21 12:12:41;;;;;;;3.97;2.78;;;;;;;7.75;38.31;99833.00;5088438;28;20059;-66
2021/12/21 12:15:17;;;;;;;4.25;2.75;;;;;;;7.42;37.50;99839.47;5088562;28;20040;-66
2021/12/21 12:17:51;;;;;;;3.97;3.20;;;;;;;7.57;39.45;99839.81;5088360;28;20320;-66
2021/12/21 12:20:27;;;;;;;6.82;3.92;;;;;;;7.59;37.24;99842.38;5087781;28;20055;-66
2021/12/21 12:23:06;;;;;;;4.60;2.70;;;;;;;7.54;37.58;99839.03;5087864;28;20040;-66
2021/12/21 12:25:48;;;;;;;4.38;2.70;;;;;;;7.37;39.61;99839.63;5088108;28;20296;-66
2021/12/21 12:28:27;;;;;;;4.00;2.90;;;;;;;7.30;39.68;99835.44;5087722;28;20048;-66
2021/12/21 12:30:56;;;;;;;3.90;2.20;;;;;;;7.06;39.95;99840.63;5087896;28;20094;-66
2021/12/21 12:33:37;;;;;;;5.28;3.13;;;;;;;7.25;37.40;99832.09;5087843;28;20040;-66
2021/12/21 12:36:09;;;;;;;4.20;2.60;;;;;;;7.33;40.17;99828.34;5088072;28;20048;-66
2021/12/21 12:38:47;;;;;;;3.42;2.33;;;;;;;7.00;38.72;99842.63;5087624;28;20041;-66
2021/12/21 12:41:19;;;;;;;4.18;2.75;;;;;;;6.98;38.92;99836.53;5087437;28;20300;-66
2021/12/21 12:43:53;;;;;;;4.10;2.72;;;;;;;7.05;39.19;99832.78;5087876;28;20041;-66
2021/12/21 12:46:27;;;;;;;4.90;3.22;;;;;;;6.39;39.76;99728.69;5087958;28;20040;-66
2021/12/21 12:48:59;;;;;;;8.57;5.68;;;;;;;7.09;39.94;99830.91;5087239;28;20040;-66
2021/12/21 12:51:36;;;;;;;7.43;4.22;;;;;;;7.02;40.56;99831.09;5087583;28;20044;-65